Bookmark and Share
Track history (hours):
 

Atlantic Osprey

Last reported at 2014-Apr-05 03:06 UTC. Time now 2014-Apr-17 03:57 UTC.
Position N 47°29' W 052°03'.
Warning: this ship's position is 12 days out of date.

Length 3 m; draft 6.4 m.

Type: Tug. MMSI: 316004850.

NotesDate/timePositionNaut miles runAvg speedWind from/ knotsBaromVisibWave heightAir tempDewpointWater temp
2014-Apr-05 03:06N 47°29' W 052°03'5 8.3
2014-Apr-05 02:33N 47°30' W 052°10'9 8.7
2014-Apr-05 01:31N 47°32' W 052°23'10 9.8
2014-Apr-05 00:29N 47°33' W 052°38'1 0.8
2014-Apr-04 23:33N 47°33' W 052°39'0 0.0
2014-Apr-04 22:30N 47°33' W 052°39'0 0.0
2014-Apr-04 21:30N 47°33' W 052°39'2 2.5
2014-Apr-04 20:33N 47°34' W 052°42'0 0.0
2014-Apr-04 19:29N 47°34' W 052°42'0 0.0
2014-Apr-04 18:29N 47°34' W 052°42'0 0.0
2014-Apr-04 17:30N 47°34' W 052°42'0 0.0
2014-Apr-04 16:29N 47°34' W 052°42'0 0.0
2014-Apr-04 15:32N 47°34' W 052°42'0 0.0
2014-Apr-04 14:30N 47°34' W 052°42'0 0.0
2014-Apr-04 13:28N 47°34' W 052°42'0 0.0
2014-Apr-04 12:31N 47°34' W 052°42'0 0.0
2014-Apr-04 11:30N 47°34' W 052°42'0 0.0
2014-Apr-04 10:29N 47°34' W 052°42'0 0.0
2014-Apr-04 09:33N 47°34' W 052°42'0 0.0
2014-Apr-04 08:31N 47°34' W 052°42'0 0.0
2014-Apr-04 07:29N 47°34' W 052°42'0 0.0
2014-Apr-04 06:33N 47°34' W 052°42'0 0.0
2014-Apr-04 05:31N 47°34' W 052°42'0 0.0
2014-Apr-04 04:30N 47°34' W 052°42'0 0.0
2014-Apr-04 03:29N 47°34' W 052°42'0 0.0
2014-Apr-04 02:32N 47°34' W 052°42'0 0.0
2014-Apr-04 01:30N 47°34' W 052°42'0 0.0
2014-Apr-04 00:29N 47°34' W 052°42'0 0.0
2014-Apr-03 23:32N 47°34' W 052°42'0 0.0
2014-Apr-03 22:31N 47°34' W 052°42'0 0.1
2014-Apr-03 21:29N 47°34' W 052°42'0 0.0
2014-Apr-03 19:30N 47°34' W 052°42'0 0.0
2014-Apr-03 18:33N 47°34' W 052°42'0 0.0
2014-Apr-03 17:30N 47°34' W 052°42'0 0.0
2014-Apr-03 16:32N 47°34' W 052°42'0 0.0
2014-Apr-03 15:30N 47°34' W 052°42'0 0.0
2014-Apr-03 14:33N 47°34' W 052°42'0 0.0
2014-Apr-03 13:33N 47°34' W 052°42'0 0.0
2014-Apr-03 12:32N 47°34' W 052°42'0 0.0
2014-Apr-03 11:29N 47°34' W 052°42'0 0.0
2014-Apr-03 10:33N 47°34' W 052°42'0 0.1
2014-Apr-03 09:32N 47°34' W 052°42'0 0.0
2014-Apr-03 08:30N 47°34' W 052°42'0 0.0
2014-Apr-03 07:29N 47°34' W 052°42'0 0.0
2014-Apr-03 06:29N 47°34' W 052°42'0 0.0
2014-Apr-03 05:31N 47°34' W 052°42'0 0.0
2014-Apr-03 04:33N 47°34' W 052°42'0 0.0
2014-Apr-03 03:30N 47°34' W 052°42'0 0.0
2014-Apr-03 02:31N 47°34' W 052°42'0 0.0
2014-Apr-03 01:33N 47°34' W 052°42'0 0.0
2014-Apr-03 00:31N 47°34' W 052°42'0 0.0
2014-Apr-02 23:29N 47°34' W 052°42'0 0.0
2014-Apr-02 22:27N 47°34' W 052°42'0 0.0
2014-Apr-02 21:29N 47°34' W 052°42'0 0.0
2014-Apr-02 20:32N 47°34' W 052°42'0 0.0
2014-Apr-02 19:32N 47°34' W 052°42'0 0.0
2014-Apr-02 18:33N 47°34' W 052°42'0 0.0
2014-Apr-02 17:32N 47°34' W 052°42'0 0.0
2014-Apr-02 16:30N 47°34' W 052°42'0 0.0
2014-Apr-02 15:25N 47°34' W 052°42'0 0.0
2014-Apr-02 14:29N 47°34' W 052°42'0 0.0
2014-Apr-02 13:25N 47°34' W 052°42'0 0.0
2014-Apr-02 12:30N 47°34' W 052°42'0 0.0
2014-Apr-02 11:30N 47°34' W 052°42'0 0.0
2014-Apr-02 10:32N 47°34' W 052°42'0 0.0
2014-Apr-02 09:31N 47°34' W 052°42'0 0.0
2014-Apr-02 08:28N 47°34' W 052°42'0 0.0
2014-Apr-02 07:32N 47°34' W 052°42'0 0.0
2014-Apr-02 06:31N 47°34' W 052°42'0 0.0
2014-Apr-02 05:30N 47°34' W 052°42'0 0.0
2014-Apr-02 04:28N 47°34' W 052°42'0 0.0
2014-Apr-02 03:32N 47°34' W 052°42'0 0.0
2014-Apr-02 02:31N 47°34' W 052°42'0 0.5
2014-Apr-02 01:31N 47°34' W 052°42'0 0.0
2014-Apr-02 00:28N 47°34' W 052°42'0 0.0
2014-Apr-01 23:33N 47°34' W 052°42'0 0.0
2014-Apr-01 22:31N 47°34' W 052°42'0 0.0
2014-Apr-01 21:29N 47°34' W 052°42'0 0.0
2014-Apr-01 20:32N 47°34' W 052°42'0 0.5
2014-Apr-01 19:31N 47°34' W 052°42'0 0.0
2014-Apr-01 18:30N 47°34' W 052°42'0 0.0
2014-Apr-01 17:33N 47°34' W 052°42'0 0.0
2014-Apr-01 16:32N 47°34' W 052°42'0 0.0
2014-Apr-01 15:33N 47°34' W 052°42'0 0.0
2014-Apr-01 14:33N 47°34' W 052°42'0 0.0
2014-Apr-01 13:29N 47°34' W 052°42'0 0.0
2014-Apr-01 12:32N 47°34' W 052°42'0 0.0
2014-Apr-01 11:30N 47°34' W 052°42'0 0.0
2014-Apr-01 10:33N 47°34' W 052°42'0 0.0
2014-Apr-01 09:31N 47°34' W 052°42'0 0.0
2014-Apr-01 08:29N 47°34' W 052°42'0 0.0
2014-Apr-01 07:31N 47°34' W 052°42'0 0.0
2014-Apr-01 06:33N 47°34' W 052°42'0 0.0
2014-Apr-01 05:30N 47°34' W 052°42'0 0.0
2014-Apr-01 04:33N 47°34' W 052°42'0 0.0
2014-Apr-01 03:30N 47°34' W 052°42'0 0.0
2014-Apr-01 02:33N 47°34' W 052°42'0 0.0
2014-Apr-01 01:30N 47°34' W 052°42'0 0.0
2014-Apr-01 00:29N 47°34' W 052°42'0 0.0
2014-Mar-31 23:28N 47°34' W 052°42'2 1.9
2014-Mar-31 22:25N 47°35' W 052°39'1 0.7
2014-Mar-31 21:30N 47°34' W 052°39'1 0.7
2014-Mar-31 20:32N 47°35' W 052°38'1 1.0
2014-Mar-31 19:32N 47°34' W 052°40'1 1.5
2014-Mar-31 18:33N 47°34' W 052°42'0 0.0
2014-Mar-31 17:30N 47°34' W 052°42'0 0.0
2014-Mar-31 16:33N 47°34' W 052°42'0 0.0
2014-Mar-31 15:33N 47°34' W 052°42'0 0.0
2014-Mar-31 14:32N 47°34' W 052°42'0 0.0
2014-Mar-31 13:32N 47°34' W 052°42'0 0.0
2014-Mar-31 12:28N 47°34' W 052°42'0 0.0
2014-Mar-31 11:32N 47°34' W 052°42'0 0.0
2014-Mar-31 10:28N 47°34' W 052°42'0 0.0
2014-Mar-31 09:29N 47°34' W 052°42'0 0.0
2014-Mar-31 08:31N 47°34' W 052°42'0 0.0
2014-Mar-31 07:33N 47°34' W 052°42'0 0.0
2014-Mar-31 06:27N 47°34' W 052°42'0 0.0
2014-Mar-31 05:32N 47°34' W 052°42'0 0.0
2014-Mar-31 04:33N 47°34' W 052°42'0 0.0
2014-Mar-31 03:30N 47°34' W 052°42'0 0.0
2014-Mar-31 02:32N 47°34' W 052°42'0 0.0
2014-Mar-31 01:31N 47°34' W 052°42'0 0.0
2014-Mar-31 00:29N 47°34' W 052°42'0 0.0
2014-Mar-30 23:31N 47°34' W 052°42'0 0.0
2014-Mar-30 22:30N 47°34' W 052°42'0 0.0
2014-Mar-30 21:32N 47°34' W 052°42'0 0.0
2014-Mar-30 20:31N 47°34' W 052°42'0 0.0
2014-Mar-30 19:30N 47°34' W 052°42'0 0.0
2014-Mar-30 18:26N 47°34' W 052°42'0 0.0
2014-Mar-30 17:29N 47°34' W 052°42'0 0.0
2014-Mar-30 16:30N 47°34' W 052°42'0 0.0
2014-Mar-30 15:29N 47°34' W 052°42'0 0.0
2014-Mar-30 14:29N 47°34' W 052°42'0 0.0
2014-Mar-30 13:33N 47°34' W 052°42'0 0.0
2014-Mar-30 12:30N 47°34' W 052°42'0 0.0
2014-Mar-30 11:31N 47°34' W 052°42'0 0.0
2014-Mar-30 10:30N 47°34' W 052°42'0 0.0
2014-Mar-30 09:33N 47°34' W 052°42'0 0.0
2014-Mar-30 08:28N 47°34' W 052°42'0 0.0
2014-Mar-30 07:30N 47°34' W 052°42'0 0.0
2014-Mar-30 01:26N 47°34' W 052°42'0 0.0
2014-Mar-30 00:33N 47°34' W 052°42'0 0.0
2014-Mar-29 23:32N 47°34' W 052°42'0 0.0
2014-Mar-29 22:32N 47°34' W 052°42'0 0.0
2014-Mar-29 21:33N 47°34' W 052°42'0 0.0
2014-Mar-29 20:31N 47°34' W 052°42'0 0.0
2014-Mar-29 19:28N 47°34' W 052°42'0 0.0
2014-Mar-29 18:33N 47°34' W 052°42'0 0.0
2014-Mar-29 17:31N 47°34' W 052°42'0 0.0
2014-Mar-29 16:28N 47°34' W 052°42'0 0.0
2014-Mar-29 15:32N 47°34' W 052°42'0 0.0
2014-Mar-29 14:30N 47°34' W 052°42'0 0.0
2014-Mar-29 13:33N 47°34' W 052°42'0 0.0
2014-Mar-29 12:27N 47°34' W 052°42'0 0.0
2014-Mar-29 11:30N 47°34' W 052°42'0 0.0
2014-Mar-29 10:33N 47°34' W 052°42'0 0.0
2014-Mar-29 09:29N 47°34' W 052°42'0 0.0
2014-Mar-29 08:32N 47°34' W 052°42'0 0.0
2014-Mar-29 07:30N 47°34' W 052°42'0 0.0
2014-Mar-29 06:33N 47°34' W 052°42'0 0.0
2014-Mar-29 05:31N 47°34' W 052°42'0 0.0
2014-Mar-29 04:33N 47°34' W 052°42'0 0.0
2014-Mar-29 03:27N 47°34' W 052°42'0 0.0
2014-Mar-29 02:30N 47°34' W 052°42'0 0.0
2014-Mar-29 01:31N 47°34' W 052°42'0 0.0
2014-Mar-29 00:30N 47°34' W 052°42'0 0.0
2014-Mar-28 23:29N 47°34' W 052°42'0 0.0
2014-Mar-28 22:33N 47°34' W 052°42'0 0.0
2014-Mar-28 21:32N 47°34' W 052°42'0 0.0
2014-Mar-28 20:25N 47°34' W 052°42'0 0.0
2014-Mar-28 19:30N 47°34' W 052°42'0 0.0
2014-Mar-28 18:10N 47°34' W 052°42'0 0.0
2014-Mar-28 17:16N 47°34' W 052°42'0 0.0
2014-Mar-28 16:30N 47°34' W 052°42'0 0.0
2014-Mar-28 15:30N 47°34' W 052°42'0 0.0
2014-Mar-28 14:33N 47°34' W 052°42'0 0.0
2014-Mar-28 13:28N 47°34' W 052°42'0 0.0
2014-Mar-28 12:33N 47°34' W 052°42'0 0.0
2014-Mar-28 11:26N 47°34' W 052°42'0 0.0
2014-Mar-28 10:33N 47°34' W 052°42'0 0.0
2014-Mar-28 09:27N 47°34' W 052°42'0 0.0
2014-Mar-28 08:28N 47°34' W 052°42'0 0.0
2014-Mar-28 07:31N 47°34' W 052°42'0 0.0
2014-Mar-28 06:24N 47°34' W 052°42'0 0.0
2014-Mar-28 05:33N 47°34' W 052°42'0 0.0
2014-Mar-28 04:29N 47°34' W 052°42'0 0.0
2014-Mar-28 03:32N 47°34' W 052°42'0 0.0
2014-Mar-28 02:27N 47°34' W 052°42'0 0.0
2014-Mar-28 01:25N 47°34' W 052°42'0 0.0
2014-Mar-28 00:22N 47°34' W 052°42'0 0.0
2014-Mar-27 23:29N 47°34' W 052°42'0 0.0
2014-Mar-27 22:29N 47°34' W 052°42'0 0.0
2014-Mar-27 21:27N 47°34' W 052°42'0 0.0
2014-Mar-27 20:30N 47°34' W 052°42'0 0.0
2014-Mar-27 19:32N 47°34' W 052°42'0 0.0
2014-Mar-27 18:25N 47°34' W 052°42'0 0.0
2014-Mar-27 17:33N 47°34' W 052°42'0 0.0
2014-Mar-27 16:16N 47°34' W 052°42'0 0.0
2014-Mar-27 15:31N 47°34' W 052°42'0 0.0
2014-Mar-27 14:29N 47°34' W 052°42'0 0.0
2014-Mar-27 13:31N 47°34' W 052°42'0 0.0
2014-Mar-27 12:23N 47°34' W 052°42'0 0.0
2014-Mar-27 11:32N 47°34' W 052°42'0 0.0
2014-Mar-27 10:30N 47°34' W 052°42'0 0.0
2014-Mar-27 09:29N 47°34' W 052°42'0 0.0
2014-Mar-27 08:33N 47°34' W 052°42'0 0.0
2014-Mar-27 07:32N 47°34' W 052°42'0 0.0
2014-Mar-27 06:32N 47°34' W 052°42'0 0.0
2014-Mar-27 05:29N 47°34' W 052°42'0 0.0
2014-Mar-27 04:33N 47°34' W 052°42'0 0.0
2014-Mar-27 03:26N 47°34' W 052°42'0 0.0
2014-Mar-27 02:33N 47°34' W 052°42'0 0.0
2014-Mar-27 01:32N 47°34' W 052°42'0 0.0
2014-Mar-27 00:31N 47°34' W 052°42'0 0.0
2014-Mar-26 23:30N 47°34' W 052°42'0 0.0
2014-Mar-26 20:32N 47°34' W 052°42'0 0.0
2014-Mar-26 19:33N 47°34' W 052°42'0 0.0
2014-Mar-26 17:31N 47°34' W 052°42'0 0.0
2014-Mar-26 16:33N 47°34' W 052°42'0 0.0
2014-Mar-26 15:28N 47°34' W 052°42'0 0.0
2014-Mar-26 14:32N 47°34' W 052°42'0 0.0
2014-Mar-26 13:30N 47°34' W 052°42'0 0.0
2014-Mar-26 12:33N 47°34' W 052°42'0 0.0
2014-Mar-26 11:31N 47°34' W 052°42'0 0.0
2014-Mar-26 10:29N 47°34' W 052°42'0 0.0
2014-Mar-26 09:28N 47°34' W 052°42'0 0.0
2014-Mar-26 08:33N 47°34' W 052°42'0 0.0
2014-Mar-26 07:31N 47°34' W 052°42'  

Dump ship's entire track history

sailing weather and tide predictions

Atlantic Osprey — CFH8950 — position and weather